createdAt,value
2019-03-10T00:04:54.857Z,99862.94
2019-03-10T00:07:24.376Z,99854.78
2019-03-10T00:09:53.656Z,99851.82
2019-03-10T00:12:23.139Z,99842.58
2019-03-10T00:14:52.685Z,99837.91
2019-03-10T00:17:21.916Z,99831.41
2019-03-10T00:19:51.221Z,99834.68
2019-03-10T00:22:20.698Z,99827.84
2019-03-10T00:24:50.416Z,99824.28
2019-03-10T00:27:19.656Z,99817.03
2019-03-10T00:29:49.136Z,99810.76
2019-03-10T00:32:18.389Z,99812.38
2019-03-10T00:34:47.639Z,99814.25
2019-03-10T00:37:16.824Z,99823.22
2019-03-10T00:40:24.288Z,99815.16
2019-03-10T00:46:53.934Z,99790.44
2019-03-10T00:50:01.545Z,99787.40
2019-03-10T00:53:09.066Z,99791.45
2019-03-10T00:55:38.609Z,99801.44
2019-03-10T00:58:07.930Z,99806.39
2019-03-10T01:00:37.179Z,99800.91
2019-03-10T01:03:06.979Z,99797.38
2019-03-10T01:05:36.225Z,99786.27
2019-03-10T01:08:08.060Z,99778.20
2019-03-10T01:10:48.969Z,99775.01
2019-03-10T01:13:18.252Z,99773.66
2019-03-10T01:22:17.143Z,99764.26
2019-03-10T01:24:46.340Z,99761.83
2019-03-10T01:27:15.832Z,99746.39
2019-03-10T01:29:45.067Z,99735.10
2019-03-10T01:32:52.333Z,99723.95
2019-03-10T01:35:42.684Z,99719.29
2019-03-10T01:38:12.305Z,99708.22
2019-03-10T01:40:41.514Z,99696.55
2019-03-10T01:43:11.957Z,99690.88
2019-03-10T01:45:41.187Z,99679.17
2019-03-10T01:48:10.554Z,99671.75
2019-03-10T01:50:39.772Z,99667.84
2019-03-10T01:53:09.501Z,99662.34
2019-03-10T01:55:38.681Z,99654.80
2019-03-10T01:58:07.975Z,99642.60
2019-03-10T02:00:37.174Z,99640.69
2019-03-10T02:03:06.423Z,99634.98
2019-03-10T02:05:35.912Z,99624.11
2019-03-10T02:08:05.262Z,99602.16
2019-03-10T02:10:34.720Z,99592.19
2019-03-10T02:13:04.260Z,99586.97
2019-03-10T02:15:33.482Z,99574.45
2019-03-10T02:18:03.083Z,99573.24
2019-03-10T02:20:32.346Z,99556.78
2019-03-10T02:23:01.569Z,99556.25
2019-03-10T02:25:31.117Z,99552.02
2019-03-10T02:28:00.948Z,99547.70
2019-03-10T02:30:30.167Z,99545.83
2019-03-10T02:32:59.398Z,99542.00
2019-03-10T02:35:28.886Z,99531.27
2019-03-10T02:37:58.099Z,99519.98
2019-03-10T02:40:27.584Z,99526.57
2019-03-10T02:42:57.070Z,99506.59
2019-03-10T02:45:26.540Z,99509.27
2019-03-10T02:47:55.757Z,99508.36
2019-03-10T02:50:25.300Z,99497.81
2019-03-10T02:52:54.569Z,99486.72
2019-03-10T02:55:23.780Z,99484.52
2019-03-10T02:57:53.098Z,99471.48
2019-03-10T03:00:22.586Z,99467.42
2019-03-10T03:02:51.845Z,99461.76
2019-03-10T03:05:21.091Z,99457.67
2019-03-10T03:07:50.328Z,99448.66
2019-03-10T03:10:19.838Z,99432.89
2019-03-10T03:12:49.080Z,99427.14
2019-03-10T03:15:18.412Z,99419.94
2019-03-10T03:17:47.638Z,99405.00
2019-03-10T03:20:16.888Z,99395.45
2019-03-10T03:22:46.130Z,99386.40
2019-03-10T03:25:34.421Z,99379.62
2019-03-10T03:28:03.650Z,99373.41
2019-03-10T03:30:33.566Z,99364.22
2019-03-10T03:33:02.815Z,99359.25
2019-03-10T03:35:52.438Z,99357.02
2019-03-10T03:38:24.842Z,99353.12
2019-03-10T03:40:57.954Z,99344.36
2019-03-10T03:43:27.243Z,99337.95
2019-03-10T03:45:56.441Z,99339.00
2019-03-10T03:48:25.652Z,99337.63
2019-03-10T03:50:55.178Z,99328.60
2019-03-10T03:53:24.374Z,99337.25
2019-03-10T03:55:53.651Z,99329.91
2019-03-10T03:58:23.249Z,99329.23
2019-03-10T04:03:33.729Z,99325.11
2019-03-10T04:06:02.956Z,99312.46
2019-03-10T04:08:32.168Z,99305.84
2019-03-10T04:11:01.730Z,99293.03
2019-03-10T04:13:30.930Z,99296.25
2019-03-10T04:16:00.175Z,99294.42
2019-03-10T04:18:29.686Z,99290.12
2019-03-10T04:20:59.000Z,99293.27
2019-03-10T04:23:28.224Z,99287.08
2019-03-10T04:25:57.864Z,99304.56
2019-03-10T04:28:27.089Z,99306.81
2019-03-10T04:30:56.327Z,99303.73
2019-03-10T04:33:25.525Z,99299.17
2019-03-10T04:35:54.762Z,99297.56
2019-03-10T04:38:23.995Z,99302.66
2019-03-10T04:40:53.229Z,99296.70
2019-03-10T04:43:22.438Z,99296.44
2019-03-10T04:45:51.716Z,99284.58
2019-03-10T04:48:20.871Z,99273.23
2019-03-10T04:50:50.359Z,99272.63
2019-03-10T04:53:19.593Z,99254.64
2019-03-10T04:58:50.553Z,99218.38
2019-03-10T05:03:55.781Z,99183.44
2019-03-10T05:06:25.290Z,99182.05
2019-03-10T05:08:54.490Z,99168.05
2019-03-10T05:11:42.801Z,99166.19
2019-03-10T05:14:12.314Z,99145.95
2019-03-10T05:16:41.597Z,99136.81
2019-03-10T05:19:10.811Z,99132.25
2019-03-10T05:21:40.066Z,99123.61
2019-03-10T05:24:12.818Z,99102.88
2019-03-10T05:26:42.432Z,99096.93
2019-03-10T05:29:11.654Z,99084.52
2019-03-10T05:31:40.957Z,99084.25
2019-03-10T05:34:10.479Z,99074.82
2019-03-10T05:36:39.734Z,99065.39
2019-03-10T05:39:09.604Z,99061.32
2019-03-10T05:41:38.850Z,99055.14
2019-03-10T05:44:08.060Z,99037.66
2019-03-10T05:46:37.313Z,99010.73
2019-03-10T05:49:06.540Z,99025.28
2019-03-10T05:51:35.781Z,98999.63
2019-03-10T05:54:05.009Z,99008.03
2019-03-10T05:56:34.305Z,98986.69
2019-03-10T05:59:03.829Z,98979.75
2019-03-10T06:01:33.058Z,98958.17
2019-03-10T06:04:02.333Z,98957.36
2019-03-10T06:06:31.530Z,98960.58
2019-03-10T06:09:00.799Z,98962.77
2019-03-10T06:11:30.069Z,98959.23
2019-03-10T06:13:59.633Z,98936.33
2019-03-10T06:16:28.913Z,98920.20
2019-03-10T06:18:58.151Z,98914.52
2019-03-10T06:21:27.436Z,98897.30
2019-03-10T06:23:56.810Z,98895.97
2019-03-10T06:26:26.308Z,98890.30
2019-03-10T06:28:56.252Z,98868.53
2019-03-10T06:31:25.504Z,98857.99
2019-03-10T06:33:55.097Z,98862.62
2019-03-10T06:36:24.448Z,98860.79
2019-03-10T06:38:55.197Z,98844.91
2019-03-10T06:43:53.163Z,98841.16
2019-03-10T06:46:22.628Z,98841.16
2019-03-10T06:48:51.902Z,98831.73
2019-03-10T06:51:21.413Z,98825.02
2019-03-10T06:53:50.663Z,98810.22
2019-03-10T06:56:20.173Z,98805.40
2019-03-10T06:58:49.456Z,98809.98
2019-03-10T07:01:19.404Z,98800.30
2019-03-10T07:03:48.954Z,98796.55
2019-03-10T07:06:18.638Z,98791.43
2019-03-10T07:08:47.879Z,98776.09
2019-03-10T07:11:17.079Z,98782.31
2019-03-10T07:13:46.773Z,98767.20
2019-03-10T07:16:16.486Z,98772.61
2019-03-10T07:18:45.841Z,98773.44
2019-03-10T07:21:15.499Z,98760.77
2019-03-10T07:23:44.849Z,98758.36
2019-03-10T07:26:14.402Z,98762.42
2019-03-10T07:29:03.008Z,98752.98
2019-03-10T07:31:51.107Z,98751.91
2019-03-10T07:34:39.301Z,98750.84
2019-03-10T07:37:27.719Z,98745.16
2019-03-10T07:40:16.176Z,98740.31
2019-03-10T07:45:54.628Z,98744.88
2019-03-10T07:48:42.785Z,98741.31
2019-03-10T08:17:24.645Z,98703.17
2019-03-10T08:25:26.509Z,98608.77
2019-03-10T08:28:14.935Z,98600.84
2019-03-10T08:33:47.520Z,98558.94
2019-03-10T08:36:35.782Z,98528.94
2019-03-10T08:39:34.357Z,98514.06
2019-03-10T08:48:03.606Z,98544.49
2019-03-10T08:50:38.459Z,98529.80
2019-03-10T08:53:26.572Z,98536.38
2019-03-10T08:56:15.008Z,98508.45
2019-03-10T09:02:11.971Z,98539.18
2019-03-10T09:05:00.513Z,98538.37
2019-03-10T09:07:48.691Z,98539.63
2019-03-10T09:10:36.838Z,98556.88
2019-03-10T09:13:10.947Z,98545.51
2019-03-10T09:15:59.108Z,98539.86
2019-03-10T09:18:47.270Z,98504.84
2019-03-10T09:21:35.422Z,98549.81
2019-03-10T09:24:23.698Z,98528.52
2019-03-10T09:27:12.143Z,98527.41
2019-03-10T09:30:00.484Z,98547.70
2019-03-10T09:35:42.766Z,98534.03
2019-03-10T09:38:31.910Z,98523.63
2019-03-10T09:41:37.126Z,98522.16
2019-03-10T09:44:15.581Z,98523.37
2019-03-10T09:47:04.050Z,98515.00
2019-03-10T09:49:52.193Z,98511.44
2019-03-10T09:52:40.386Z,98493.06
2019-03-10T09:55:28.528Z,98499.71
2019-03-10T09:58:18.975Z,98521.34
2019-03-10T10:01:08.297Z,98514.86
2019-03-10T10:03:56.470Z,98532.67
2019-03-10T10:06:44.901Z,98500.44
2019-03-10T10:09:33.913Z,98552.16
2019-03-10T10:12:22.071Z,98551.95
2019-03-10T10:15:10.265Z,98553.15
2019-03-10T10:21:15.304Z,98513.45
2019-03-10T10:24:03.483Z,98558.27
2019-03-10T10:26:52.618Z,98561.63
2019-03-10T10:29:43.044Z,98535.88
2019-03-10T10:32:21.216Z,98521.53
2019-03-10T10:35:13.949Z,98527.09
2019-03-10T10:38:02.549Z,98499.16
2019-03-10T10:40:50.775Z,98489.34
2019-03-10T10:43:50.359Z,98502.64
2019-03-10T10:47:10.627Z,98484.62
2019-03-10T10:49:59.485Z,98481.45
2019-03-10T10:58:59.535Z,98495.27
2019-03-10T11:16:49.448Z,98419.51
2019-03-10T11:19:37.911Z,98426.63
2019-03-10T11:22:26.065Z,98439.41
2019-03-10T11:25:22.374Z,98449.32
2019-03-10T11:28:00.584Z,98445.66
2019-03-10T11:30:49.087Z,98386.25
2019-03-10T11:33:37.651Z,98494.94
2019-03-10T11:36:34.258Z,98507.75
2019-03-10T11:39:22.740Z,98491.81
2019-03-10T11:42:10.898Z,98526.55
2019-03-10T11:44:59.419Z,98507.05
2019-03-10T11:47:48.300Z,98514.94
2019-03-10T11:50:27.246Z,98497.81
2019-03-10T11:53:02.156Z,98543.00
2019-03-10T11:55:50.311Z,98554.13
2019-03-10T11:58:38.557Z,98508.92
2019-03-10T12:01:27.005Z,98538.94
2019-03-10T12:04:15.257Z,98562.34
2019-03-10T12:09:34.408Z,98545.79
2019-03-10T12:12:03.793Z,98564.59
2019-03-10T12:14:33.431Z,98561.28
2019-03-10T12:17:03.087Z,98581.97
2019-03-10T12:19:51.450Z,98604.48
2019-03-10T12:22:20.762Z,98573.51
2019-03-10T12:24:50.445Z,98565.70
2019-03-10T12:27:19.802Z,98568.75
2019-03-10T12:30:28.781Z,98585.58
2019-03-10T12:33:18.572Z,98615.45
2019-03-10T12:35:47.940Z,98544.05
2019-03-10T12:38:17.843Z,98552.54
2019-03-10T12:40:47.169Z,98570.45
2019-03-10T12:43:16.862Z,98638.01
2019-03-10T12:45:46.631Z,98639.14
2019-03-10T12:48:15.997Z,98621.25
2019-03-10T12:50:45.415Z,98627.66
2019-03-10T12:53:14.751Z,98621.91
2019-03-10T12:55:44.110Z,98542.42
2019-03-10T12:58:13.827Z,98611.66
2019-03-10T13:00:43.521Z,98627.54
2019-03-10T13:03:13.242Z,98630.80
2019-03-10T13:05:42.562Z,98686.86
2019-03-10T13:08:13.712Z,98616.10
2019-03-10T13:10:42.996Z,98657.91
2019-03-10T13:13:12.862Z,98685.64
2019-03-10T13:15:42.137Z,98681.44
2019-03-10T13:18:12.245Z,98696.03
2019-03-10T13:21:19.794Z,98624.36
2019-03-10T13:23:49.110Z,98553.30
2019-03-10T13:26:21.047Z,98669.63
2019-03-10T13:28:51.173Z,98675.83
2019-03-10T13:31:20.649Z,98709.36
2019-03-10T13:33:49.923Z,98695.34
2019-03-10T13:36:19.200Z,98722.97
2019-03-10T13:38:48.566Z,98671.50
2019-03-10T13:41:17.863Z,98701.42
2019-03-10T13:43:47.127Z,98732.33
2019-03-10T13:46:16.495Z,98700.41
2019-03-10T13:48:45.860Z,98756.61
2019-03-10T13:51:15.198Z,98680.40
2019-03-10T13:53:45.331Z,98624.28
2019-03-10T13:59:12.480Z,98693.54
2019-03-10T14:01:42.550Z,98739.86
2019-03-10T14:04:14.355Z,98698.63
2019-03-10T14:06:53.693Z,98763.09
2019-03-10T14:09:25.132Z,98756.70
2019-03-10T14:11:54.766Z,98732.75
2019-03-10T14:14:25.023Z,98783.22
2019-03-10T14:16:55.082Z,98743.16
2019-03-10T14:19:43.694Z,98777.67
2019-03-10T14:22:31.990Z,98809.00
2019-03-10T14:25:01.935Z,98827.60
2019-03-10T14:27:31.707Z,98809.37
2019-03-10T14:30:00.960Z,98864.77
2019-03-10T14:32:30.284Z,98875.06
2019-03-10T14:34:59.623Z,98900.36
2019-03-10T14:37:28.936Z,98860.12
2019-03-10T14:40:17.640Z,98923.53
2019-03-10T14:42:48.386Z,98911.02
2019-03-10T14:45:17.916Z,98949.91
2019-03-10T14:47:49.942Z,98954.50
2019-03-10T14:53:27.123Z,98947.78
2019-03-10T14:55:58.883Z,98968.61
2019-03-10T14:58:28.511Z,98984.02
2019-03-10T15:00:57.818Z,98980.63
2019-03-10T15:03:27.125Z,99027.14
2019-03-10T15:05:57.007Z,99010.93
2019-03-10T15:08:26.378Z,99049.52
2019-03-10T15:10:56.637Z,99067.98
2019-03-10T15:13:26.551Z,99028.97
2019-03-10T15:15:56.034Z,98982.39
2019-03-10T15:18:25.497Z,99102.62
2019-03-10T15:21:14.817Z,99080.19
2019-03-10T15:23:44.358Z,99065.88
2019-03-10T15:26:13.715Z,99072.48
2019-03-10T15:28:43.258Z,99066.58
2019-03-10T15:31:15.635Z,99081.44
2019-03-10T15:33:45.093Z,99135.62
2019-03-10T15:36:20.196Z,99147.89
2019-03-10T15:38:45.931Z,99147.36
2019-03-10T15:41:15.759Z,99193.42
2019-03-10T15:43:45.608Z,99170.12
2019-03-10T15:46:17.230Z,99148.74
2019-03-10T15:49:05.957Z,99185.83
2019-03-10T15:51:35.417Z,99195.58
2019-03-10T15:54:05.864Z,99175.55
2019-03-10T15:56:36.535Z,99206.93
2019-03-10T15:59:09.225Z,99224.47
2019-03-10T16:01:39.027Z,99208.43
2019-03-10T16:04:27.860Z,99223.20
2019-03-10T16:07:16.156Z,99224.22
2019-03-10T16:09:45.515Z,99216.11
2019-03-10T16:12:15.664Z,99193.00
2019-03-10T16:14:45.270Z,99163.08
2019-03-10T16:17:15.395Z,99191.13
2019-03-10T16:19:45.609Z,99172.05
2019-03-10T16:22:15.190Z,99211.80
2019-03-10T16:24:44.766Z,99181.92
2019-03-10T16:27:14.040Z,99193.87
2019-03-10T16:30:02.401Z,99185.39
2019-03-10T16:32:31.700Z,99230.75
2019-03-10T16:35:01.041Z,99226.07
2019-03-10T16:37:30.657Z,99224.17
2019-03-10T16:40:00.485Z,99240.37
2019-03-10T16:42:29.716Z,99241.87
2019-03-10T16:44:59.012Z,99274.27
2019-03-10T16:47:28.236Z,99256.24
2019-03-10T16:50:17.222Z,99288.61
2019-03-10T16:52:46.630Z,99284.12
2019-03-10T16:55:16.160Z,99251.31
2019-03-10T16:57:45.483Z,99302.53
2019-03-10T17:03:48.435Z,99322.02
2019-03-10T17:06:17.729Z,99348.60
2019-03-10T17:08:47.750Z,99297.99
2019-03-10T17:11:17.105Z,99349.04
2019-03-10T17:13:46.671Z,99365.16
2019-03-10T17:16:16.499Z,99361.08
2019-03-10T17:18:45.986Z,99378.80
2019-03-10T17:21:15.238Z,99390.16
2019-03-10T17:23:44.894Z,99398.32
2019-03-10T17:26:14.711Z,99417.52
2019-03-10T17:28:44.629Z,99433.62
2019-03-10T17:31:13.961Z,99419.28
2019-03-10T17:33:43.494Z,99434.45
2019-03-10T17:36:12.802Z,99427.14
2019-03-10T17:38:42.076Z,99410.52
2019-03-10T17:41:11.390Z,99420.00
2019-03-10T17:43:40.637Z,99448.67
2019-03-10T17:46:10.052Z,99435.48
2019-03-10T17:48:39.339Z,99451.06
2019-03-10T17:51:09.010Z,99423.00
2019-03-10T17:53:58.459Z,99376.78
2019-03-10T17:56:46.990Z,99433.09
2019-03-10T17:59:16.364Z,99457.58
2019-03-10T18:02:09.176Z,99468.57
2019-03-10T18:04:36.738Z,99484.63
2019-03-10T18:07:06.393Z,99493.06
2019-03-10T18:09:35.699Z,99462.56
2019-03-10T18:12:05.479Z,99513.53
2019-03-10T18:17:29.722Z,99531.59
2019-03-10T18:19:59.393Z,99523.56
2019-03-10T18:22:28.656Z,99524.50
2019-03-10T18:24:58.792Z,99539.09
2019-03-10T18:27:28.059Z,99544.66
2019-03-10T18:29:57.815Z,99573.86
2019-03-10T18:32:27.527Z,99583.66
2019-03-10T18:34:56.782Z,99582.27
2019-03-10T18:37:26.469Z,99586.66
2019-03-10T18:39:55.893Z,99606.33
2019-03-10T18:42:25.613Z,99588.99
2019-03-10T18:44:55.678Z,99607.48
2019-03-10T18:47:25.597Z,99598.27
2019-03-10T18:49:55.522Z,99625.06
2019-03-10T18:55:00.405Z,99634.39
2019-03-10T19:00:24.339Z,99650.87
2019-03-10T19:02:53.788Z,99656.68
2019-03-10T19:05:23.047Z,99675.98
2019-03-10T19:07:52.761Z,99652.45
2019-03-10T19:10:22.368Z,99671.98
2019-03-10T19:12:52.611Z,99658.94
2019-03-10T19:15:22.405Z,99694.36
2019-03-10T19:17:51.677Z,99698.83
2019-03-10T19:20:21.302Z,99708.47
2019-03-10T19:22:50.912Z,99702.81
2019-03-10T19:25:20.190Z,99705.96
2019-03-10T19:27:49.597Z,99700.18
2019-03-10T19:30:19.083Z,99694.22
2019-03-10T19:32:48.531Z,99682.81
2019-03-10T19:35:17.778Z,99671.86
2019-03-10T19:37:47.439Z,99694.03
2019-03-10T19:40:17.070Z,99700.06
2019-03-10T19:42:46.399Z,99700.24
2019-03-10T19:45:34.673Z,99691.46
2019-03-10T19:48:23.415Z,99692.92
2019-03-10T19:51:13.161Z,99685.06
2019-03-10T19:53:42.837Z,99697.05
2019-03-10T19:56:31.808Z,99702.70
2019-03-10T19:59:01.092Z,99699.28
2019-03-10T20:01:50.146Z,99720.05
2019-03-10T20:04:19.551Z,99727.48
2019-03-10T20:06:48.921Z,99745.11
2019-03-10T20:09:18.297Z,99751.07
2019-03-10T20:11:48.024Z,99711.83
2019-03-10T20:14:17.308Z,99734.75
2019-03-10T20:16:46.926Z,99779.65
2019-03-10T20:19:16.602Z,99780.35
2019-03-10T20:21:45.921Z,99750.69
2019-03-10T20:24:34.281Z,99770.47
2019-03-10T20:27:03.855Z,99787.68
2019-03-10T20:29:52.191Z,99751.00
2019-03-10T20:32:22.072Z,99758.45
2019-03-10T20:35:10.916Z,99765.66
2019-03-10T20:37:40.262Z,99762.06
2019-03-10T20:40:10.731Z,99780.17
2019-03-10T20:42:39.978Z,99785.09
2019-03-10T20:45:28.286Z,99779.47
2019-03-10T20:47:57.586Z,99793.25
2019-03-10T20:50:27.249Z,99808.75
2019-03-10T20:52:58.364Z,99820.08
2019-03-10T20:55:28.030Z,99846.68
2019-03-10T20:57:57.255Z,99871.00
2019-03-10T21:00:26.928Z,99869.38
2019-03-10T21:02:56.182Z,99882.84
2019-03-10T21:05:25.454Z,99870.09
2019-03-10T21:07:54.692Z,99845.02
2019-03-10T21:10:23.975Z,99885.80
2019-03-10T21:13:12.545Z,99910.66
2019-03-10T21:15:42.178Z,99870.35
2019-03-10T21:18:11.424Z,99919.16
2019-03-10T21:20:40.934Z,99902.95
2019-03-10T21:23:10.192Z,99909.36
2019-03-10T21:25:39.425Z,99878.41
2019-03-10T21:28:08.641Z,99869.88
2019-03-10T21:30:37.884Z,99878.58
2019-03-10T21:33:07.634Z,99884.05
2019-03-10T21:35:56.276Z,99885.11
2019-03-10T21:38:25.500Z,99883.77
2019-03-10T21:40:55.137Z,99869.70
2019-03-10T21:43:24.341Z,99874.13
2019-03-10T21:45:53.904Z,99882.09
2019-03-10T21:48:23.109Z,99877.55
2019-03-10T21:50:52.395Z,99877.64
2019-03-10T21:53:21.607Z,99878.89
2019-03-10T21:56:09.972Z,99878.75
2019-03-10T21:58:39.538Z,99867.89
2019-03-10T22:01:09.117Z,99844.25
2019-03-10T22:03:38.375Z,99850.14
2019-03-10T22:06:07.622Z,99845.28
2019-03-10T22:08:37.119Z,99858.55
2019-03-10T22:11:06.435Z,99860.51
2019-03-10T22:13:46.081Z,99862.37
2019-03-10T22:16:07.325Z,99854.39
2019-03-10T22:18:36.568Z,99859.22
2019-03-10T22:21:06.162Z,99861.98
2019-03-10T22:23:35.407Z,99860.80
2019-03-10T22:26:04.652Z,99860.64
2019-03-10T22:28:34.237Z,99871.55
2019-03-10T22:31:03.479Z,99870.44
2019-03-10T22:33:32.709Z,99878.34
2019-03-10T22:36:01.946Z,99868.28
2019-03-10T22:38:31.334Z,99872.31
2019-03-10T22:41:00.959Z,99862.31
2019-03-10T22:43:30.244Z,99863.95
2019-03-10T22:45:59.526Z,99851.58
2019-03-10T22:48:29.185Z,99877.02
2019-03-10T22:50:58.787Z,99875.09
2019-03-10T22:53:28.020Z,99863.43
2019-03-10T22:55:57.313Z,99874.56
2019-03-10T22:58:26.946Z,99876.94
2019-03-10T23:04:12.036Z,99868.72
2019-03-10T23:06:41.289Z,99864.26
2019-03-10T23:12:19.100Z,99852.25
2019-03-10T23:14:48.285Z,99848.37
2019-03-10T23:17:17.516Z,99852.84
2019-03-10T23:19:46.768Z,99849.17
2019-03-10T23:22:16.025Z,99860.82
2019-03-10T23:24:45.577Z,99855.69
2019-03-10T23:27:14.823Z,99857.98
2019-03-10T23:29:44.467Z,99856.80
2019-03-10T23:32:13.977Z,99850.59
2019-03-10T23:34:43.498Z,99856.20
2019-03-10T23:37:13.086Z,99842.84
2019-03-10T23:39:42.312Z,99848.73
2019-03-10T23:42:11.556Z,99837.98
2019-03-10T23:44:41.030Z,99828.73
2019-03-10T23:47:10.557Z,99836.56
2019-03-10T23:49:40.062Z,99827.39
2019-03-10T23:52:09.684Z,99823.05
2019-03-10T23:54:38.925Z,99818.19
2019-03-10T23:57:08.144Z,99817.23
2019-03-10T23:59:37.472Z,99810.80
